createdAt,value
2023-01-27T00:00:18.038Z,1020.275015
2023-01-27T00:05:18.104Z,1020.353429
2023-01-27T00:10:18.252Z,1020.333620
2023-01-27T00:15:18.491Z,1020.281214
2023-01-27T00:20:18.031Z,1020.276139
2023-01-27T00:25:18.109Z,1020.331330
2023-01-27T00:30:18.352Z,1020.342458
2023-01-27T00:35:18.040Z,1020.328603
2023-01-27T00:40:18.278Z,1020.249064
2023-01-27T00:45:18.020Z,1020.262039
2023-01-27T00:50:18.022Z,1020.253519
2023-01-27T00:55:18.012Z,1020.286865
2023-01-27T01:00:18.113Z,1020.282353
2023-01-27T01:05:18.075Z,1020.306674
2023-01-27T01:10:17.965Z,1020.272073
2023-01-27T01:15:18.261Z,1020.383272
2023-01-27T01:20:18.023Z,1020.485634
2023-01-27T01:25:18.226Z,1020.466891
2023-01-27T01:30:18.006Z,1020.387784
2023-01-27T01:35:18.084Z,1020.325604
2023-01-27T01:40:17.890Z,1020.338767
2023-01-27T01:45:18.595Z,1020.265629
2023-01-27T01:50:18.052Z,1020.280032
2023-01-27T01:55:17.959Z,1020.229197
2023-01-27T02:00:18.451Z,1020.265427
2023-01-27T02:05:18.011Z,1020.229947
2023-01-27T02:10:18.154Z,1020.214463
2023-01-27T02:15:18.296Z,1020.307295
2023-01-27T02:20:18.106Z,1020.367284
2023-01-27T02:25:17.997Z,1020.376814
2023-01-27T02:30:17.882Z,1020.439874
2023-01-27T02:35:18.037Z,1020.481496
2023-01-27T02:40:18.355Z,1020.520235
2023-01-27T02:45:18.040Z,1020.590503
2023-01-27T02:50:18.050Z,1020.636768
2023-01-27T02:55:17.936Z,1020.681403
2023-01-27T03:00:18.053Z,1020.661118
2023-01-27T03:05:18.361Z,1020.615776
2023-01-27T03:10:18.187Z,1020.591267
2023-01-27T03:15:18.141Z,1020.603124
2023-01-27T03:20:17.935Z,1020.603681
2023-01-27T03:25:18.284Z,1020.590705
2023-01-27T03:30:17.998Z,1020.616656
2023-01-27T03:35:18.286Z,1020.720458
2023-01-27T03:40:18.020Z,1020.779965
2023-01-27T03:45:18.183Z,1020.785086
2023-01-27T03:50:17.977Z,1020.845022
2023-01-27T03:55:18.045Z,1020.850039
2023-01-27T04:00:18.602Z,1020.846233
2023-01-27T04:05:19.487Z,1020.880914
2023-01-27T04:10:19.068Z,1020.897278
2023-01-27T04:15:18.485Z,1020.834458
2023-01-27T04:20:19.205Z,1020.832887
2023-01-27T04:25:19.264Z,1020.763821
2023-01-27T04:30:18.064Z,1020.764940
2023-01-27T04:35:18.200Z,1020.770894
2023-01-27T04:40:17.961Z,1020.830321
2023-01-27T04:45:17.982Z,1020.902031
2023-01-27T04:50:18.356Z,1020.949925
2023-01-27T04:55:18.036Z,1021.003642
2023-01-27T05:00:18.329Z,1021.023076
2023-01-27T05:05:17.949Z,1021.050281
2023-01-27T05:10:17.920Z,1021.118199
2023-01-27T05:15:18.017Z,1021.114047
2023-01-27T05:20:18.009Z,1021.140732
2023-01-27T05:25:18.265Z,1021.121991
2023-01-27T05:30:18.009Z,1021.116037
2023-01-27T05:35:17.947Z,1021.112966
2023-01-27T05:40:17.928Z,1021.096864
2023-01-27T05:45:17.911Z,1021.143691
2023-01-27T05:50:18.132Z,1021.093925
2023-01-27T05:55:18.012Z,1021.138430
2023-01-27T06:00:17.893Z,1021.168143
2023-01-27T06:05:18.041Z,1021.171027
2023-01-27T06:10:17.870Z,1021.178797
2023-01-27T06:15:18.076Z,1021.233019
2023-01-27T06:20:17.877Z,1021.264736
2023-01-27T06:25:18.238Z,1021.378628
2023-01-27T06:30:17.928Z,1021.377186
2023-01-27T06:35:18.296Z,1021.384320
2023-01-27T06:40:18.040Z,1021.424744
2023-01-27T06:45:18.129Z,1021.478086
2023-01-27T06:55:17.903Z,1021.562888
2023-01-27T07:00:18.035Z,1021.616070
2023-01-27T07:05:18.284Z,1021.611080
2023-01-27T07:10:18.021Z,1021.605314
2023-01-27T07:15:17.922Z,1021.678840
2023-01-27T07:20:18.355Z,1021.645119
2023-01-27T07:25:17.962Z,1021.633845
2023-01-27T07:30:18.269Z,1021.663681
2023-01-27T07:35:17.872Z,1021.690013
2023-01-27T07:40:18.451Z,1021.706638
2023-01-27T07:45:17.961Z,1021.728768
2023-01-27T07:50:18.029Z,1021.722252
2023-01-27T07:55:17.807Z,1021.788457
2023-01-27T08:00:17.840Z,1021.882858
2023-01-27T08:05:18.312Z,1021.935395
2023-01-27T08:10:17.907Z,1021.910269
2023-01-27T08:15:19.237Z,1021.973515
2023-01-27T08:20:17.806Z,1021.974846
2023-01-27T08:25:18.131Z,1021.992277
2023-01-27T08:30:18.009Z,1022.087427
2023-01-27T08:35:17.830Z,1022.191039
2023-01-27T08:40:17.854Z,1022.260867
2023-01-27T08:45:17.855Z,1022.350765
2023-01-27T08:50:18.016Z,1022.371786
2023-01-27T08:55:17.796Z,1022.397029
2023-01-27T09:00:17.891Z,1022.345262
2023-01-27T09:05:17.918Z,1022.423111
2023-01-27T09:10:17.994Z,1022.446255
2023-01-27T09:15:17.984Z,1022.483551
2023-01-27T09:20:17.938Z,1022.496338
2023-01-27T09:25:17.955Z,1022.524984
2023-01-27T09:30:17.872Z,1022.552321
2023-01-27T09:35:18.063Z,1022.584863
2023-01-27T09:40:18.059Z,1022.628993
2023-01-27T09:45:17.821Z,1022.586384
2023-01-27T09:50:18.159Z,1022.531681
2023-01-27T09:55:17.916Z,1022.555521
2023-01-27T10:00:17.920Z,1022.511846
2023-01-27T10:05:18.131Z,1022.468119
2023-01-27T10:10:17.892Z,1022.496101
2023-01-27T10:15:18.132Z,1022.548455
2023-01-27T10:20:17.777Z,1022.454140
2023-01-27T10:25:18.008Z,1022.458600
2023-01-27T10:30:17.869Z,1022.478444
2023-01-27T10:35:17.875Z,1022.547354
2023-01-27T10:40:18.023Z,1022.547254
2023-01-27T10:45:17.798Z,1022.577105
2023-01-27T10:50:17.844Z,1022.593375
2023-01-27T10:55:17.809Z,1022.577185
2023-01-27T11:01:28.850Z,1022.541236
2023-01-27T11:05:17.779Z,1022.589038
2023-01-27T11:10:18.069Z,1022.605544
2023-01-27T11:15:17.963Z,1022.603870
2023-01-27T11:20:17.853Z,1022.609311
2023-01-27T11:25:17.935Z,1022.638050
2023-01-27T11:30:18.454Z,1022.612614
2023-01-27T11:35:17.815Z,1022.602849
2023-01-27T11:40:18.097Z,1022.606943
2023-01-27T11:45:17.853Z,1022.562069
2023-01-27T11:50:17.881Z,1022.505663
2023-01-27T11:55:17.869Z,1022.422937
2023-01-27T12:00:17.931Z,1022.475717
2023-01-27T12:05:17.888Z,1022.434098
2023-01-27T12:10:20.117Z,1022.386899
2023-01-27T12:15:18.042Z,1022.372810
2023-01-27T12:20:17.933Z,1022.351514
2023-01-27T12:25:18.186Z,1022.295948
2023-01-27T12:30:17.833Z,1022.292519
2023-01-27T12:35:17.884Z,1022.224167
2023-01-27T12:40:17.780Z,1022.181778
2023-01-27T12:45:17.966Z,1022.152951
2023-01-27T12:50:17.850Z,1022.088083
2023-01-27T12:55:18.119Z,1022.107440
2023-01-27T13:00:17.861Z,1022.105030
2023-01-27T13:05:17.957Z,1022.075604
2023-01-27T13:10:17.809Z,1022.069797
2023-01-27T13:15:17.873Z,1022.069202
2023-01-27T13:20:17.767Z,1022.041509
2023-01-27T13:25:17.817Z,1021.962518
2023-01-27T13:30:17.883Z,1022.001878
2023-01-27T13:35:17.817Z,1022.008014
2023-01-27T13:40:17.872Z,1022.018990
2023-01-27T13:45:17.791Z,1022.020797
2023-01-27T13:50:17.890Z,1021.990859
2023-01-27T13:55:17.862Z,1022.002466
2023-01-27T14:00:18.028Z,1021.977259
2023-01-27T14:05:17.762Z,1021.997297
2023-01-27T14:10:18.203Z,1022.056212
2023-01-27T14:15:17.848Z,1022.093324
2023-01-27T14:20:18.183Z,1022.105889
2023-01-27T14:25:17.820Z,1022.201727
2023-01-27T14:30:17.833Z,1022.211633
2023-01-27T14:35:17.948Z,1022.235215
2023-01-27T14:40:17.970Z,1022.194670
2023-01-27T14:45:18.178Z,1022.219693
2023-01-27T14:50:17.844Z,1022.240207
2023-01-27T14:55:17.841Z,1022.263640
2023-01-27T15:00:17.804Z,1022.323661
2023-01-27T15:05:17.755Z,1022.330200
2023-01-27T15:10:17.835Z,1022.319222
2023-01-27T15:15:17.891Z,1022.349493
2023-01-27T15:20:17.758Z,1022.373479
2023-01-27T15:25:19.683Z,1022.356033
2023-01-27T15:30:17.777Z,1022.343244
2023-01-27T15:35:17.681Z,1022.388817
2023-01-27T15:40:17.845Z,1022.427515
2023-01-27T15:45:17.676Z,1022.448733
2023-01-27T15:50:17.789Z,1022.487766
2023-01-27T15:55:17.746Z,1022.520999
2023-01-27T16:00:17.794Z,1022.536049
2023-01-27T16:05:17.710Z,1022.550982
2023-01-27T16:10:17.770Z,1022.645932
2023-01-27T16:15:18.002Z,1022.779247
2023-01-27T16:20:17.710Z,1022.672916
2023-01-27T16:25:18.303Z,1022.807119
2023-01-27T16:30:17.899Z,1022.960244
2023-01-27T16:35:17.819Z,1022.945428
2023-01-27T16:40:17.709Z,1022.959255
2023-01-27T16:45:17.683Z,1022.977625
2023-01-27T16:50:17.983Z,1023.026449
2023-01-27T16:55:17.729Z,1023.068250
2023-01-27T17:00:17.762Z,1023.105358
2023-01-27T17:05:17.778Z,1023.150746
2023-01-27T17:10:32.828Z,1023.215760
2023-01-27T17:15:17.882Z,1023.251578
2023-01-27T17:20:17.701Z,1023.287948
2023-01-27T17:25:17.771Z,1023.305614
2023-01-27T17:30:17.876Z,1023.321252
2023-01-27T17:35:18.006Z,1023.344097
2023-01-27T17:40:17.796Z,1023.367864
2023-01-27T17:45:17.848Z,1023.423967
2023-01-27T17:50:18.175Z,1023.524976
2023-01-27T17:55:17.945Z,1023.556687
2023-01-27T18:00:17.927Z,1023.568587
2023-01-27T18:05:17.785Z,1023.544083
2023-01-27T18:10:17.876Z,1023.535468
2023-01-27T18:15:17.766Z,1023.581442
2023-01-27T18:20:17.641Z,1023.622874
2023-01-27T18:25:18.069Z,1023.640204
2023-01-27T18:30:17.709Z,1023.752114
2023-01-27T18:35:17.936Z,1023.783641
2023-01-27T18:40:17.843Z,1023.821521
2023-01-27T18:45:17.752Z,1023.855595
2023-01-27T18:50:17.776Z,1023.920643
2023-01-27T18:55:17.890Z,1023.939013
2023-01-27T19:00:18.101Z,1023.952793
2023-01-27T19:05:17.600Z,1023.883500
2023-01-27T19:10:17.734Z,1023.875372
2023-01-27T19:15:17.747Z,1023.888495
2023-01-27T19:20:17.686Z,1023.924161
2023-01-27T19:25:17.801Z,1023.939463
2023-01-27T19:30:17.859Z,1023.971509
2023-01-27T19:35:17.791Z,1024.001225
2023-01-27T19:40:18.321Z,1024.028462
2023-01-27T19:45:17.604Z,1024.061798
2023-01-27T19:50:17.627Z,1024.066089
2023-01-27T19:55:18.061Z,1024.097581
2023-01-27T20:00:17.830Z,1024.126040
2023-01-27T20:05:17.655Z,1024.195043
2023-01-27T20:10:17.687Z,1024.299896
2023-01-27T20:15:17.841Z,1024.328137
2023-01-27T20:20:17.552Z,1024.289220
2023-01-27T20:25:17.688Z,1024.283605
2023-01-27T20:30:17.711Z,1024.281610
2023-01-27T20:35:17.586Z,1024.318014
2023-01-27T20:40:17.588Z,1024.278727
2023-01-27T20:45:18.100Z,1024.367910
2023-01-27T20:50:17.633Z,1024.341964
2023-01-27T20:55:17.889Z,1024.392598
2023-01-27T21:00:17.840Z,1024.467734
2023-01-27T21:05:17.825Z,1024.482886
2023-01-27T21:10:17.626Z,1024.519843
2023-01-27T21:15:17.879Z,1024.526012
2023-01-27T21:20:17.671Z,1024.544590
2023-01-27T21:25:18.464Z,1024.548243
2023-01-27T21:30:17.732Z,1024.500989
2023-01-27T21:35:18.088Z,1024.497921
2023-01-27T21:40:18.020Z,1024.509672
2023-01-27T21:45:17.977Z,1024.561043
2023-01-27T21:50:17.715Z,1024.557307
2023-01-27T21:55:18.136Z,1024.546734
2023-01-27T22:00:27.929Z,1024.542630
2023-01-27T22:05:18.008Z,1024.565877
2023-01-27T22:10:17.797Z,1024.544256
2023-01-27T22:15:17.979Z,1024.543184
2023-01-27T22:20:17.728Z,1024.564102
2023-01-27T22:25:18.023Z,1024.569939
2023-01-27T22:30:17.866Z,1024.537193
2023-01-27T22:35:18.158Z,1024.493653
2023-01-27T22:40:17.731Z,1024.462496
2023-01-27T22:45:17.868Z,1024.457987
2023-01-27T22:50:17.684Z,1024.436550
2023-01-27T22:55:18.055Z,1024.405578
2023-01-27T23:00:17.602Z,1024.405837
2023-01-27T23:05:18.067Z,1024.419549
2023-01-27T23:10:17.684Z,1024.425205
2023-01-27T23:15:18.045Z,1024.448490
2023-01-27T23:20:17.880Z,1024.460098
2023-01-27T23:25:17.881Z,1024.429719
2023-01-27T23:30:17.646Z,1024.428394
2023-01-27T23:35:17.771Z,1024.384158
2023-01-27T23:40:17.546Z,1024.365499
2023-01-27T23:45:17.897Z,1024.334712
2023-01-27T23:50:17.613Z,1024.354893
2023-01-27T23:55:17.526Z,1024.356705
